ADDS METAR Data INFO
IDs: Format: Raw Decoded Include TAF

Data at: 1758 UTC 15 Dec 2017

KGTF 151753Z 23027G39KT 10SM CLR 08/M10 A2980 RMK AO2 PK WND 22042/1656 SLP109 T00831100 10083 20050 58004
KGTF 151653Z 22035G44KT 10SM CLR 07/M10 A2979 RMK AO2 PK WND 21044/1648 SLP111 T00721100
KGTF 151553Z 23024G35KT 10SM CLR 07/M09 A2982 RMK AO2 PK WND 22036/1504 SLP124 T00671089
KGTF 151453Z 22028G37KT 10SM CLR 07/M09 A2981 RMK AO2 PK WND 21037/1453 SLP117 T00671089 58016
KGTF 151353Z 22024G32KT 10SM CLR 06/M09 A2985 RMK AO2 PK WND 22040/1309 SLP130 T00611089
KGTF 151253Z 23029G41KT 10SM CLR 07/M09 A2984 RMK AO2 PK WND 23041/1249 SLP128 T00671094
KGTF 151153Z 22024G31KT 10SM CLR 06/M09 A2986 RMK AO2 PK WND 22036/1103 SLP137 T00561094 10056 20022 58021
KGTF 151053Z 22024KT 10SM CLR 05/M09 A2989 RMK AO2 PK WND 22037/1023 SLP145 T00501094
KGTF 150953Z 22021G30KT 10SM CLR 04/M09 A2991 RMK AO2 PK WND 22030/0944 SLP152 T00391089
KGTF 150853Z 22019G27KT 10SM CLR 03/M08 A2993 RMK AO2 PK WND 21027/0851 SLP159 T00331083 57030
KGTF 150753Z 21018KT 10SM CLR 03/M08 A2996 RMK AO2 PK WND 21027/0743 SLP169 T00331083
KGTF 150653Z 21017KT 10SM CLR 02/M08 A3000 RMK AO2 SLP186 T00221078 400561050
KGTF 150553Z 21015KT 10SM CLR 02/M08 A3003 RMK AO2 SLP201 T00221078 10022 20006 57016
KGTF 150453Z 20015KT 10SM CLR 02/M07 A3004 RMK AO2 SLP209 T00171072
KGTF 150353Z 21016KT 10SM CLR 01/M07 A3007 RMK AO2 SLP222 T00111072
KGTF 150253Z 21016KT 10SM CLR 02/M07 A3008 RMK AO2 SLP228 T00171072 58010
KGTF 150153Z 21018KT 10SM CLR 02/M07 A3009 RMK AO2 SLP232 T00221072
KGTF 150053Z 22017G23KT 10SM CLR 02/M07 A3011 RMK AO2 SLP239 T00171067
KGTF 142353Z 22018KT 10SM CLR 02/M07 A3011 RMK AO2 SLP240 T00221067 10056 20022 56019
KGTF 142253Z 22016KT 10SM CLR 03/M07 A3013 RMK AO2 SLP244 T00331067
KGTF 142153Z 22014KT 10SM CLR 05/M06 A3015 RMK AO2 PK WND 22028/2128 SLP250 T00501061
KGTF 142053Z 23016KT 10SM CLR 06/M06 A3018 RMK AO2 PK WND 22028/2023 SLP252 T00561061 56035
KGTF 141953Z 22020G25KT 10SM CLR 06/M06 A3020 RMK AO2 PK WND 22026/1903 SLP260 T00561061
KGTF 141853Z 22018KT 10SM CLR 04/M06 A3025 RMK AO2 PK WND 21027/1818 SLP280 T00391056
KGTF 141753Z 21015KT 10SM CLR 02/M05 A3029 RMK AO2 SLP306 T00221050 10022 21050 58020
KGTF 141653Z 21012KT 10SM CLR 00/M05 A3032 RMK AO2 SLP316 T00001050
KGTF 141553Z 20011KT 10SM CLR M02/M06 A3034 RMK AO2 SLP323 T10171056
KGTF 141453Z 21011KT 10SM CLR M03/M06 A3035 RMK AO2 SLP328 T10331061 55007
KGTF 141353Z 21012KT 10SM CLR M03/M06 A3035 RMK AO2 SLP328 T10331061
KGTF 141253Z 20007KT 10SM CLR M04/M07 A3037 RMK AO2 SLP341 T10391067
KGTF 141153Z 21009KT 10SM CLR M04/M07 A3038 RMK AO2 SLP341 T10391067 10000 21056 57004
KGTF 141053Z 22010KT 10SM CLR M03/M06 A3038 RMK AO2 SLP333 T10331061
KGTF 140953Z 24008KT 10SM FEW055 M04/M07 A3039 RMK AO2 SLP337 T10441072
KGTF 140853Z 26006KT 10SM OVC060 M01/M06 A3039 RMK AO2 SLP331 T10111056 51008
KGTF 140753Z 26007KT 10SM OVC060 M01/M05 A3039 RMK AO2 SLP328 T10061050
KGTF 140653Z 27006KT 10SM OVC060 M02/M06 A3039 RMK AO2 SLP332 T10171061 400391056